PRIVATE WETTERSTATION BILLIGHEIM-ALLFELD                       ZURCK
Wetterdaten: Donnerstag, 12.05.2022
Datum Zeit Temp. A. Temp. A. min Temp. A. max Feuchte A. Luftdruck Regen Wind Richtung Richtung Sonnenschein ET Solar Taupunkt Windchill Windben Empfang
12.05.2022 00:00 20,3 C 20,3 C 20,6 C 57 % 1011,3 hPa 0,0 l/m 0,0 km/h (0 Bft) S-SO 157 0 min 0,051 mm 0 W/m 11,5 C 20,3 C 6,4 km/h (2 Bft) 100 %
12.05.2022 00:10 20,2 C 20,2 C 20,3 C 58 % 1011,2 hPa 0,0 l/m 0,0 km/h (0 Bft) SO 135 0 min 0,000 mm 0 W/m 11,7 C 20,2 C 6,4 km/h (2 Bft) 99 %
12.05.2022 00:20 20,1 C 20,1 C 20,2 C 58 % 1011,3 hPa 0,0 l/m 0,0 km/h (0 Bft) SO 135 0 min 0,000 mm 0 W/m 11,6 C 20,1 C 4,8 km/h (1 Bft) 100 %
12.05.2022 00:30 19,9 C 19,9 C 20,1 C 59 % 1011,2 hPa 0,0 l/m 0,0 km/h (0 Bft) S-SO 157 0 min 0,000 mm 0 W/m 11,6 C 19,9 C 6,4 km/h (2 Bft) 100 %
12.05.2022 00:40 19,8 C 19,8 C 19,9 C 58 % 1011,1 hPa 0,0 l/m 0,0 km/h (0 Bft) SO 135 0 min 0,000 mm 0 W/m 11,3 C 19,8 C 4,8 km/h (1 Bft) 100 %
12.05.2022 00:50 19,7 C 19,7 C 19,8 C 57 % 1011,1 hPa 0,0 l/m 0,0 km/h (0 Bft) SO 135 0 min 0,000 mm 0 W/m 10,9 C 19,7 C 8,0 km/h (2 Bft) 100 %
12.05.2022 01:00 19,5 C 19,5 C 19,7 C 57 % 1011,1 hPa 0,0 l/m 1,6 km/h (1 Bft) SO 135 0 min 0,051 mm 0 W/m 10,8 C 19,5 C 9,7 km/h (2 Bft) 100 %
12.05.2022 01:10 19,4 C 19,4 C 19,5 C 61 % 1012,0 hPa 0,0 l/m 0,0 km/h (0 Bft) S-SO 157 0 min 0,000 mm 0 W/m 11,7 C 19,4 C 6,4 km/h (2 Bft) 100 %
12.05.2022 01:20 19,2 C 19,2 C 19,5 C 61 % 1012,2 hPa 0,0 l/m 9,7 km/h (2 Bft) W-NW 292 0 min 0,000 mm 0 W/m 11,5 C 17,9 C 33,8 km/h (5 Bft) 100 %
12.05.2022 01:30 19,5 C 19,2 C 19,5 C 62 % 1012,1 hPa 0,0 l/m 4,8 km/h (1 Bft) W-NW 292 0 min 0,000 mm 0 W/m 12,0 C 19,5 C 11,3 km/h (2 Bft) 99 %
12.05.2022 01:40 19,6 C 19,5 C 19,7 C 63 % 1011,9 hPa 0,0 l/m 4,8 km/h (1 Bft) W 270 0 min 0,000 mm 0 W/m 12,4 C 19,6 C 16,1 km/h (3 Bft) 100 %
12.05.2022 01:50 19,6 C 19,6 C 19,7 C 64 % 1011,8 hPa 0,0 l/m 1,6 km/h (1 Bft) W 270 0 min 0,000 mm 0 W/m 12,6 C 19,6 C 9,7 km/h (2 Bft) 100 %
12.05.2022 02:00 19,4 C 19,4 C 19,6 C 64 % 1011,9 hPa 0,0 l/m 0,0 km/h (0 Bft) W 270 0 min 0,051 mm 0 W/m 12,4 C 19,4 C 4,8 km/h (1 Bft) 100 %
12.05.2022 02:10 19,2 C 19,2 C 19,4 C 66 % 1012,0 hPa 0,0 l/m 0,0 km/h (0 Bft) N 0 0 min 0,000 mm 0 W/m 12,7 C 19,2 C 0,0 km/h (0 Bft) 100 %
12.05.2022 02:20 18,9 C 18,9 C 19,2 C 67 % 1012,2 hPa 0,0 l/m 0,0 km/h (0 Bft) W 270 0 min 0,000 mm 0 W/m 12,6 C 18,9 C 4,8 km/h (1 Bft) 100 %
12.05.2022 02:30 18,6 C 18,6 C 18,9 C 68 % 1012,2 hPa 0,0 l/m 0,0 km/h (0 Bft) W 270 0 min 0,000 mm 0 W/m 12,6 C 18,6 C 3,2 km/h (1 Bft) 100 %
12.05.2022 02:40 18,4 C 18,4 C 18,6 C 69 % 1012,3 hPa 0,0 l/m 1,6 km/h (1 Bft) W 270 0 min 0,000 mm 0 W/m 12,6 C 18,4 C 9,7 km/h (2 Bft) 100 %
12.05.2022 02:50 18,4 C 18,4 C 18,4 C 70 % 1012,4 hPa 0,0 l/m 1,6 km/h (1 Bft) W-SW 247 0 min 0,000 mm 0 W/m 12,8 C 18,4 C 9,7 km/h (2 Bft) 100 %
12.05.2022 03:00 18,6 C 18,4 C 18,6 C 68 % 1012,4 hPa 0,0 l/m 1,6 km/h (1 Bft) W 270 0 min 0,025 mm 0 W/m 12,6 C 18,6 C 22,5 km/h (4 Bft) 100 %
12.05.2022 03:10 18,7 C 18,6 C 18,7 C 68 % 1012,4 hPa 0,0 l/m 4,8 km/h (1 Bft) W 270 0 min 0,000 mm 0 W/m 12,7 C 18,7 C 11,3 km/h (2 Bft) 100 %
12.05.2022 03:20 18,7 C 18,7 C 18,8 C 67 % 1012,5 hPa 0,0 l/m 4,8 km/h (1 Bft) W-SW 247 0 min 0,000 mm 0 W/m 12,4 C 18,7 C 14,5 km/h (3 Bft) 100 %
12.05.2022 03:30 18,7 C 18,7 C 18,7 C 67 % 1012,5 hPa 0,0 l/m 4,8 km/h (1 Bft) W-SW 247 0 min 0,000 mm 0 W/m 12,4 C 18,7 C 16,1 km/h (3 Bft) 100 %
12.05.2022 03:40 18,7 C 18,7 C 18,7 C 67 % 1012,7 hPa 0,0 l/m 3,2 km/h (1 Bft) W-SW 247 0 min 0,000 mm 0 W/m 12,4 C 18,7 C 11,3 km/h (2 Bft) 100 %
12.05.2022 03:50 18,4 C 18,4 C 18,7 C 68 % 1012,8 hPa 0,0 l/m 0,0 km/h (0 Bft) N 0 0 min 0,000 mm 0 W/m 12,4 C 18,4 C 0,0 km/h (0 Bft) 100 %
12.05.2022 04:00 18,1 C 18,1 C 18,4 C 70 % 1012,8 hPa 0,0 l/m 3,2 km/h (1 Bft) SW 225 0 min 0,051 mm 0 W/m 12,5 C 18,1 C 11,3 km/h (2 Bft) 100 %
12.05.2022 04:10 18,0 C 18,0 C 18,1 C 70 % 1012,9 hPa 0,0 l/m 3,2 km/h (1 Bft) SW 225 0 min 0,000 mm 0 W/m 12,4 C 18,0 C 14,5 km/h (3 Bft) 100 %
12.05.2022 04:20 17,9 C 17,9 C 18,0 C 70 % 1013,1 hPa 0,0 l/m 3,2 km/h (1 Bft) SW 225 0 min 0,000 mm 0 W/m 12,3 C 17,9 C 16,1 km/h (3 Bft) 100 %
12.05.2022 04:30 18,0 C 17,9 C 18,0 C 70 % 1013,2 hPa 0,0 l/m 4,8 km/h (1 Bft) W-SW 247 0 min 0,000 mm 0 W/m 12,4 C 18,0 C 20,9 km/h (4 Bft) 100 %
12.05.2022 04:40 17,8 C 17,8 C 18,0 C 70 % 1013,3 hPa 0,0 l/m 1,6 km/h (1 Bft) S-SW 202 0 min 0,000 mm 0 W/m 12,3 C 17,8 C 11,3 km/h (2 Bft) 100 %
12.05.2022 04:50 17,7 C 17,7 C 17,8 C 70 % 1013,4 hPa 0,0 l/m 8,0 km/h (2 Bft) S-SW 202 0 min 0,000 mm 0 W/m 12,2 C 16,9 C 24,1 km/h (4 Bft) 100 %
12.05.2022 05:00 17,3 C 17,3 C 17,7 C 71 % 1013,5 hPa 0,0 l/m 1,6 km/h (1 Bft) S-SW 202 0 min 0,025 mm 0 W/m 12,0 C 17,3 C 17,7 km/h (3 Bft) 100 %
12.05.2022 05:10 17,2 C 17,2 C 17,3 C 72 % 1013,6 hPa 0,0 l/m 3,2 km/h (1 Bft) S-SW 202 0 min 0,000 mm 0 W/m 12,1 C 17,2 C 16,1 km/h (3 Bft) 100 %
12.05.2022 05:20 17,1 C 17,1 C 17,2 C 72 % 1013,7 hPa 0,0 l/m 0,0 km/h (0 Bft) SW 225 0 min 0,000 mm 0 W/m 12,0 C 17,1 C 9,7 km/h (2 Bft) 100 %
12.05.2022 05:30 17,0 C 17,0 C 17,1 C 72 % 1013,7 hPa 0,0 l/m 1,6 km/h (1 Bft) SW 225 0 min 0,000 mm 0 W/m 11,9 C 17,0 C 17,7 km/h (3 Bft) 100 %
12.05.2022 05:40 16,8 C 16,8 C 17,0 C 72 % 1013,9 hPa 0,0 l/m 0,0 km/h (0 Bft) S-SW 202 0 min 0,000 mm 0 W/m 11,7 C 16,8 C 9,7 km/h (2 Bft) 100 %
12.05.2022 05:50 16,6 C 16,6 C 16,8 C 73 % 1014,1 hPa 0,0 l/m 0,0 km/h (0 Bft) SW 225 0 min 0,000 mm 5 W/m 11,7 C 16,6 C 12,9 km/h (3 Bft) 100 %
12.05.2022 06:00 16,5 C 16,5 C 16,6 C 73 % 1014,2 hPa 0,0 l/m 0,0 km/h (0 Bft) W-SW 247 0 min 0,000 mm 9 W/m 11,6 C 16,5 C 14,5 km/h (3 Bft) 100 %
12.05.2022 06:10 16,5 C 16,5 C 16,6 C 73 % 1014,5 hPa 0,0 l/m 1,6 km/h (1 Bft) W-SW 247 0 min 0,000 mm 12 W/m 11,6 C 16,5 C 14,5 km/h (3 Bft) 100 %
12.05.2022 06:20 16,6 C 16,5 C 16,6 C 73 % 1014,7 hPa 0,0 l/m 8,0 km/h (2 Bft) W-SW 247 0 min 0,000 mm 18 W/m 11,7 C 15,8 C 20,9 km/h (4 Bft) 100 %
12.05.2022 06:30 16,7 C 16,6 C 16,7 C 72 % 1014,8 hPa 0,0 l/m 6,4 km/h (2 Bft) W-SW 247 0 min 0,000 mm 21 W/m 11,6 C 16,7 C 19,3 km/h (3 Bft) 100 %
12.05.2022 06:40 16,7 C 16,7 C 16,7 C 72 % 1014,9 hPa 0,0 l/m 6,4 km/h (2 Bft) W 270 0 min 0,000 mm 44 W/m 11,6 C 16,7 C 16,1 km/h (3 Bft) 100 %
12.05.2022 06:50 16,8 C 16,7 C 16,8 C 72 % 1015,2 hPa 0,0 l/m 6,4 km/h (2 Bft) W-SW 247 0 min 0,000 mm 47 W/m 11,7 C 16,8 C 14,5 km/h (3 Bft) 100 %
12.05.2022 07:00 16,9 C 16,8 C 16,9 C 72 % 1015,3 hPa 0,0 l/m 6,4 km/h (2 Bft) W-SW 247 0 min 0,051 mm 47 W/m 11,8 C 16,9 C 17,7 km/h (3 Bft) 100 %
12.05.2022 07:10 16,9 C 16,9 C 16,9 C 72 % 1015,4 hPa 0,0 l/m 3,2 km/h (1 Bft) W-SW 247 0 min 0,000 mm 76 W/m 11,8 C 16,9 C 16,1 km/h (3 Bft) 99 %
12.05.2022 07:20 17,0 C 16,9 C 17,0 C 72 % 1015,6 hPa 0,0 l/m 4,8 km/h (1 Bft) W-SW 247 0 min 0,000 mm 95 W/m 11,9 C 17,0 C 19,3 km/h (3 Bft) 100 %
12.05.2022 07:30 17,1 C 17,0 C 17,1 C 73 % 1015,7 hPa 0,0 l/m 4,8 km/h (1 Bft) W 270 0 min 0,000 mm 93 W/m 12,2 C 17,1 C 19,3 km/h (3 Bft) 100 %
12.05.2022 07:40 17,2 C 17,1 C 17,2 C 72 % 1015,9 hPa 0,0 l/m 3,2 km/h (1 Bft) W-SW 247 0 min 0,000 mm 91 W/m 12,1 C 17,2 C 14,5 km/h (3 Bft) 100 %
12.05.2022 07:50 17,2 C 17,2 C 17,2 C 72 % 1016,3 hPa 0,0 l/m 3,2 km/h (1 Bft) W-SW 247 0 min 0,000 mm 77 W/m 12,1 C 17,2 C 17,7 km/h (3 Bft) 100 %
12.05.2022 08:00 17,2 C 17,2 C 17,2 C 72 % 1016,3 hPa 0,0 l/m 4,8 km/h (1 Bft) W-SW 247 0 min 0,051 mm 121 W/m 12,1 C 17,2 C 16,1 km/h (3 Bft) 100 %
12.05.2022 08:10 17,3 C 17,2 C 17,3 C 73 % 1016,4 hPa 0,0 l/m 3,2 km/h (1 Bft) W-SW 247 0 min 0,000 mm 132 W/m 12,4 C 17,3 C 16,1 km/h (3 Bft) 100 %
12.05.2022 08:20 17,4 C 17,3 C 17,4 C 72 % 1016,6 hPa 0,0 l/m 3,2 km/h (1 Bft) W-SW 247 10 min 0,000 mm 167 W/m 12,3 C 17,4 C 14,5 km/h (3 Bft) 100 %
12.05.2022 08:30 17,5 C 17,4 C 17,5 C 72 % 1016,8 hPa 0,0 l/m 3,2 km/h (1 Bft) W-SW 247 10 min 0,000 mm 174 W/m 12,4 C 17,5 C 19,3 km/h (3 Bft) 100 %
12.05.2022 08:40 17,6 C 17,5 C 17,6 C 72 % 1016,7 hPa 0,0 l/m 4,8 km/h (1 Bft) W-SW 247 10 min 0,000 mm 232 W/m 12,5 C 17,6 C 17,7 km/h (3 Bft) 100 %
12.05.2022 08:50 17,6 C 17,6 C 17,6 C 73 % 1016,9 hPa 0,0 l/m 4,8 km/h (1 Bft) SW 225 10 min 0,000 mm 206 W/m 12,7 C 17,6 C 19,3 km/h (3 Bft) 100 %
12.05.2022 09:00 17,8 C 17,6 C 17,8 C 73 % 1016,9 hPa 0,0 l/m 6,4 km/h (2 Bft) W-SW 247 10 min 0,127 mm 464 W/m 12,9 C 17,8 C 19,3 km/h (3 Bft) 100 %
12.05.2022 09:10 18,4 C 17,8 C 18,4 C 71 % 1016,9 hPa 0,0 l/m 6,4 km/h (2 Bft) W-SW 247 10 min 0,000 mm 508 W/m 13,0 C 18,4 C 19,3 km/h (3 Bft) 100 %
12.05.2022 09:20 19,0 C 18,4 C 19,0 C 69 % 1017,0 hPa 0,0 l/m 8,0 km/h (2 Bft) SW 225 10 min 0,000 mm 540 W/m 13,2 C 18,3 C 19,3 km/h (3 Bft) 100 %
12.05.2022 09:30 19,2 C 19,0 C 19,2 C 68 % 1017,1 hPa 0,0 l/m 9,7 km/h (2 Bft) W-NW 292 10 min 0,000 mm 577 W/m 13,1 C 17,9 C 24,1 km/h (4 Bft) 100 %
12.05.2022 09:40 19,6 C 19,3 C 19,6 C 68 % 1017,0 hPa 0,0 l/m 4,8 km/h (1 Bft) W 270 10 min 0,000 mm 633 W/m 13,5 C 19,6 C 16,1 km/h (3 Bft) 100 %
12.05.2022 09:50 19,8 C 19,6 C 19,8 C 67 % 1017,1 hPa 0,0 l/m 8,0 km/h (2 Bft) W-SW 247 10 min 0,000 mm 673 W/m 13,5 C 19,1 C 20,9 km/h (4 Bft) 100 %
12.05.2022 10:00 19,9 C 19,9 C 20,0 C 64 % 1017,2 hPa 0,0 l/m 9,7 km/h (2 Bft) W-SW 247 10 min 0,330 mm 765 W/m 12,9 C 18,6 C 22,5 km/h (4 Bft) 100 %
12.05.2022 10:10 20,1 C 19,9 C 20,1 C 62 % 1017,3 hPa 0,0 l/m 9,7 km/h (2 Bft) W 270 10 min 0,000 mm 853 W/m 12,6 C 18,8 C 22,5 km/h (4 Bft) 100 %
12.05.2022 10:20 19,9 C 19,9 C 20,2 C 63 % 1017,4 hPa 0,0 l/m 11,3 km/h (2 Bft) W 270 10 min 0,000 mm 369 W/m 12,6 C 18,1 C 29,0 km/h (5 Bft) 100 %
12.05.2022 10:30 20,1 C 19,9 C 20,1 C 62 % 1017,4 hPa 0,0 l/m 8,0 km/h (2 Bft) W-NW 292 10 min 0,000 mm 935 W/m 12,6 C 19,5 C 24,1 km/h (4 Bft) 100 %
12.05.2022 10:40 20,3 C 20,1 C 20,3 C 63 % 1017,6 hPa 0,0 l/m 12,9 km/h (3 Bft) W-SW 247 10 min 0,000 mm 1039 W/m 13,0 C 18,1 C 25,7 km/h (4 Bft) 100 %
12.05.2022 10:50 19,8 C 19,8 C 20,4 C 65 % 1017,7 hPa 0,0 l/m 8,0 km/h (2 Bft) S-SW 202 10 min 0,000 mm 383 W/m 13,0 C 19,1 C 20,9 km/h (4 Bft) 100 %
12.05.2022 11:00 19,6 C 19,6 C 19,8 C 66 % 1017,8 hPa 0,0 l/m 8,0 km/h (2 Bft) W-SW 247 10 min 0,305 mm 316 W/m 13,1 C 18,9 C 22,5 km/h (4 Bft) 100 %
12.05.2022 11:10 19,5 C 19,4 C 19,5 C 66 % 1017,8 hPa 0,0 l/m 3,2 km/h (1 Bft) W-SW 247 10 min 0,000 mm 468 W/m 13,0 C 19,5 C 19,3 km/h (3 Bft) 100 %
12.05.2022 11:20 19,6 C 19,4 C 19,6 C 66 % 1017,8 hPa 0,0 l/m 4,8 km/h (1 Bft) W-SW 247 10 min 0,000 mm 374 W/m 13,1 C 19,6 C 17,7 km/h (3 Bft) 100 %
12.05.2022 11:30 20,1 C 19,6 C 20,1 C 64 % 1017,9 hPa 0,0 l/m 8,0 km/h (2 Bft) W-SW 247 10 min 0,000 mm 1144 W/m 13,1 C 19,5 C 22,5 km/h (4 Bft) 100 %
12.05.2022 11:40 20,1 C 20,1 C 20,2 C 64 % 1017,8 hPa 0,0 l/m 9,7 km/h (2 Bft) W 270 10 min 0,000 mm 381 W/m 13,1 C 18,8 C 20,9 km/h (4 Bft) 100 %
12.05.2022 11:50 20,2 C 20,1 C 20,2 C 64 % 1017,9 hPa 0,0 l/m 8,0 km/h (2 Bft) W 270 10 min 0,000 mm 489 W/m 13,2 C 19,6 C 22,5 km/h (4 Bft) 100 %
12.05.2022 12:00 20,1 C 20,1 C 20,2 C 63 % 1017,9 hPa 0,0 l/m 9,7 km/h (2 Bft) W-SW 247 10 min 0,279 mm 383 W/m 12,8 C 18,8 C 24,1 km/h (4 Bft) 100 %
12.05.2022 12:10 20,1 C 20,1 C 20,1 C 63 % 1017,9 hPa 0,0 l/m 11,3 km/h (2 Bft) W-SW 247 10 min 0,000 mm 427 W/m 12,8 C 18,3 C 29,0 km/h (5 Bft) 100 %
12.05.2022 12:20 19,9 C 19,9 C 20,1 C 63 % 1017,9 hPa 0,0 l/m 8,0 km/h (2 Bft) W 270 10 min 0,000 mm 376 W/m 12,6 C 19,2 C 20,9 km/h (4 Bft) 100 %
12.05.2022 12:30 20,1 C 19,9 C 20,1 C 64 % 1017,8 hPa 0,0 l/m 6,4 km/h (2 Bft) W 270 10 min 0,000 mm 371 W/m 13,1 C 20,1 C 22,5 km/h (4 Bft) 100 %
12.05.2022 12:40 20,4 C 20,1 C 20,4 C 63 % 1017,6 hPa 0,0 l/m 8,0 km/h (2 Bft) SW 225 10 min 0,000 mm 1065 W/m 13,1 C 19,8 C 25,7 km/h (4 Bft) 100 %
12.05.2022 12:50 20,9 C 20,4 C 20,9 C 62 % 1017,4 hPa 0,0 l/m 4,8 km/h (1 Bft) W-SW 247 10 min 0,000 mm 963 W/m 13,3 C 20,9 C 22,5 km/h (4 Bft) 100 %
12.05.2022 13:20 21,5 C 20,4 C 21,7 C 59 % 1017,3 hPa 0,0 l/m 10,8 km/h (2 Bft) SW 229 30 min 0,356 mm 923 W/m 13,1 C 20,1 C 27,4 km/h (4 Bft) 97 %
12.05.2022 13:30 21,8 C 21,4 C 21,8 C 58 % 1017,3 hPa 0,0 l/m 8,3 km/h (2 Bft) W-SW 239 10 min 0,000 mm 946 W/m 13,2 C 21,1 C 29,0 km/h (5 Bft) 98 %
12.05.2022 13:40 22,2 C 21,8 C 22,2 C 57 % 1017,2 hPa 0,0 l/m 7,0 km/h (2 Bft) W 266 10 min 0,000 mm 276 W/m 13,3 C 22,0 C 25,7 km/h (4 Bft) 97 %
12.05.2022 13:50 22,0 C 22,0 C 22,2 C 58 % 1017,1 hPa 0,0 l/m 7,3 km/h (2 Bft) W-SW 251 10 min 0,000 mm 239 W/m 13,3 C 21,7 C 22,5 km/h (4 Bft) 98 %
12.05.2022 14:00 21,9 C 21,9 C 22,1 C 59 % 1017,2 hPa 0,0 l/m 9,5 km/h (2 Bft) W-SW 237 10 min 0,533 mm 294 W/m 13,5 C 20,9 C 24,1 km/h (4 Bft) 97 %
12.05.2022 14:10 22,2 C 21,9 C 22,2 C 59 % 1017,1 hPa 0,0 l/m 7,5 km/h (2 Bft) W-NW 290 10 min 0,000 mm 227 W/m 13,8 C 21,8 C 27,4 km/h (4 Bft) 98 %
12.05.2022 14:20 22,5 C 22,2 C 22,5 C 58 % 1017,0 hPa 0,0 l/m 11,5 km/h (2 Bft) S-SW 213 10 min 0,000 mm 928 W/m 13,8 C 21,0 C 27,4 km/h (4 Bft) 97 %
12.05.2022 14:30 22,4 C 22,4 C 22,6 C 58 % 1016,9 hPa 0,0 l/m 9,7 km/h (2 Bft) W 261 10 min 0,000 mm 248 W/m 13,7 C 21,4 C 30,6 km/h (5 Bft) 98 %
12.05.2022 14:40 22,6 C 22,3 C 22,6 C 56 % 1016,9 hPa 0,0 l/m 11,0 km/h (2 Bft) W-SW 251 10 min 0,000 mm 424 W/m 13,4 C 21,3 C 25,7 km/h (4 Bft) 97 %
12.05.2022 14:50 22,6 C 22,5 C 22,6 C 57 % 1016,7 hPa 0,0 l/m 10,6 km/h (2 Bft) W-SW 244 10 min 0,000 mm 928 W/m 13,6 C 21,4 C 30,6 km/h (5 Bft) 97 %
12.05.2022 15:00 22,9 C 22,6 C 22,9 C 55 % 1016,7 hPa 0,0 l/m 11,5 km/h (2 Bft) NW 310 10 min 0,508 mm 956 W/m 13,4 C 21,5 C 33,8 km/h (5 Bft) 97 %
12.05.2022 15:10 22,9 C 22,9 C 23,2 C 54 % 1016,7 hPa 0,0 l/m 10,6 km/h (2 Bft) W 270 10 min 0,000 mm 297 W/m 13,1 C 21,7 C 27,4 km/h (4 Bft) 97 %
12.05.2022 15:20 22,7 C 22,7 C 22,9 C 56 % 1016,6 hPa 0,0 l/m 11,1 km/h (2 Bft) W-NW 301 10 min 0,000 mm 497 W/m 13,5 C 21,3 C 27,4 km/h (4 Bft) 98 %
12.05.2022 15:30 22,6 C 22,6 C 22,7 C 57 % 1016,5 hPa 0,0 l/m 6,6 km/h (2 Bft) W 259 10 min 0,000 mm 415 W/m 13,6 C 22,5 C 27,4 km/h (4 Bft) 97 %
12.05.2022 15:40 22,6 C 22,6 C 22,6 C 57 % 1016,5 hPa 0,0 l/m 6,9 km/h (2 Bft) W-SW 256 10 min 0,000 mm 403 W/m 13,6 C 22,4 C 25,7 km/h (4 Bft) 98 %
12.05.2022 15:50 22,5 C 22,5 C 22,6 C 57 % 1016,5 hPa 0,0 l/m 8,7 km/h (2 Bft) W-SW 246 10 min 0,000 mm 360 W/m 13,5 C 21,8 C 27,4 km/h (4 Bft) 97 %
12.05.2022 16:00 22,4 C 22,4 C 22,5 C 56 % 1016,4 hPa 0,0 l/m 8,7 km/h (2 Bft) W 262 10 min 0,330 mm 455 W/m 13,2 C 21,7 C 22,5 km/h (4 Bft) 97 %
12.05.2022 16:10 22,5 C 22,4 C 22,5 C 57 % 1016,2 hPa 0,0 l/m 4,8 km/h (1 Bft) W-NW 296 10 min 0,000 mm 417 W/m 13,5 C 22,5 C 22,5 km/h (4 Bft) 98 %
12.05.2022 16:20 22,4 C 22,4 C 22,6 C 56 % 1016,1 hPa 0,0 l/m 9,8 km/h (2 Bft) W-SW 246 10 min 0,000 mm 401 W/m 13,2 C 21,3 C 25,7 km/h (4 Bft) 97 %
12.05.2022 16:30 22,3 C 22,3 C 22,4 C 57 % 1016,1 hPa 0,0 l/m 6,8 km/h (2 Bft) NW 309 10 min 0,000 mm 383 W/m 13,4 C 22,2 C 20,9 km/h (4 Bft) 97 %
12.05.2022 16:40 22,2 C 22,2 C 22,3 C 57 % 1016,1 hPa 0,0 l/m 7,6 km/h (2 Bft) W-SW 257 10 min 0,000 mm 345 W/m 13,3 C 21,8 C 22,5 km/h (4 Bft) 97 %
12.05.2022 16:50 22,2 C 22,2 C 22,2 C 57 % 1016,1 hPa 0,0 l/m 2,4 km/h (1 Bft) W-SW 248 10 min 0,000 mm 364 W/m 13,3 C 22,2 C 16,1 km/h (3 Bft) 97 %
12.05.2022 17:00 22,3 C 22,2 C 22,3 C 58 % 1015,9 hPa 0,0 l/m 4,3 km/h (1 Bft) W-SW 257 10 min 0,280 mm 332 W/m 13,6 C 22,3 C 19,3 km/h (3 Bft) 98 %
12.05.2022 17:10 22,3 C 22,3 C 22,3 C 59 % 1015,8 hPa 0,0 l/m 5,1 km/h (1 Bft) SW 229 10 min 0,000 mm 302 W/m 13,9 C 22,3 C 17,7 km/h (3 Bft) 97 %
12.05.2022 17:20 22,2 C 22,2 C 22,3 C 57 % 1015,7 hPa 0,0 l/m 5,6 km/h (1 Bft) NW 324 10 min 0,000 mm 299 W/m 13,3 C 22,2 C 20,9 km/h (4 Bft) 98 %
12.05.2022 17:30 22,1 C 22,1 C 22,2 C 58 % 1015,7 hPa 0,0 l/m 7,2 km/h (2 Bft) W-SW 252 10 min 0,000 mm 278 W/m 13,4 C 21,8 C 24,1 km/h (4 Bft) 97 %
12.05.2022 17:40 21,9 C 21,9 C 22,1 C 58 % 1015,7 hPa 0,0 l/m 3,0 km/h (1 Bft) W 263 10 min 0,000 mm 220 W/m 13,3 C 21,9 C 16,1 km/h (3 Bft) 98 %
12.05.2022 17:50 21,9 C 21,8 C 21,9 C 58 % 1015,6 hPa 0,0 l/m 2,5 km/h (1 Bft) W 274 10 min 0,000 mm 251 W/m 13,3 C 21,9 C 16,1 km/h (3 Bft) 97 %
12.05.2022 18:00 21,9 C 21,8 C 21,9 C 59 % 1015,7 hPa 0,0 l/m 5,1 km/h (1 Bft) W-NW 296 10 min 0,203 mm 251 W/m 13,5 C 21,9 C 17,7 km/h (3 Bft) 97 %
12.05.2022 18:10 21,9 C 21,9 C 21,9 C 59 % 1015,6 hPa 0,0 l/m 7,6 km/h (2 Bft) NW 304 10 min 0,000 mm 229 W/m 13,5 C 21,5 C 19,3 km/h (3 Bft) 98 %
12.05.2022 18:20 21,9 C 21,9 C 21,9 C 59 % 1015,5 hPa 0,0 l/m 6,8 km/h (2 Bft) W 279 10 min 0,000 mm 169 W/m 13,5 C 21,8 C 20,9 km/h (4 Bft) 97 %
12.05.2022 18:30 21,7 C 21,7 C 21,9 C 60 % 1015,5 hPa 0,0 l/m 5,1 km/h (1 Bft) W-NW 290 10 min 0,000 mm 174 W/m 13,6 C 21,7 C 16,1 km/h (3 Bft) 98 %
12.05.2022 18:40 21,6 C 21,6 C 21,7 C 60 % 1015,6 hPa 0,0 l/m 5,1 km/h (1 Bft) W 271 0 min 0,000 mm 151 W/m 13,5 C 21,6 C 19,3 km/h (3 Bft) 97 %
12.05.2022 18:50 21,6 C 21,5 C 21,6 C 59 % 1015,7 hPa 0,0 l/m 4,8 km/h (1 Bft) W-SW 254 10 min 0,000 mm 250 W/m 13,2 C 21,6 C 16,1 km/h (3 Bft) 98 %
12.05.2022 19:00 21,6 C 21,5 C 21,6 C 60 % 1015,8 hPa 0,0 l/m 7,2 km/h (2 Bft) W-NW 294 10 min 0,152 mm 279 W/m 13,5 C 21,3 C 19,3 km/h (3 Bft) 97 %
12.05.2022 19:10 21,7 C 21,6 C 21,8 C 60 % 1015,8 hPa 0,0 l/m 5,8 km/h (2 Bft) W 277 10 min 0,000 mm 185 W/m 13,6 C 21,7 C 16,1 km/h (3 Bft) 97 %
12.05.2022 19:20 21,6 C 21,6 C 21,7 C 61 % 1015,8 hPa 0,0 l/m 9,1 km/h (2 Bft) W-SW 252 0 min 0,000 mm 130 W/m 13,7 C 20,7 C 20,9 km/h (4 Bft) 98 %
12.05.2022 19:30 21,3 C 21,3 C 21,6 C 61 % 1015,7 hPa 0,0 l/m 8,1 km/h (2 Bft) W-SW 258 0 min 0,000 mm 105 W/m 13,5 C 20,7 C 22,5 km/h (4 Bft) 97 %
12.05.2022 19:40 21,1 C 21,1 C 21,3 C 62 % 1015,8 hPa 0,0 l/m 5,5 km/h (1 Bft) SW 229 0 min 0,000 mm 91 W/m 13,5 C 21,1 C 14,5 km/h (3 Bft) 98 %
12.05.2022 19:50 20,8 C 20,8 C 21,1 C 63 % 1015,7 hPa 0,0 l/m 3,1 km/h (1 Bft) W 267 0 min 0,000 mm 74 W/m 13,5 C 20,8 C 14,5 km/h (3 Bft) 97 %
12.05.2022 20:00 20,7 C 20,7 C 20,9 C 64 % 1015,8 hPa 0,0 l/m 2,3 km/h (1 Bft) W-SW 253 0 min 0,102 mm 49 W/m 13,6 C 20,7 C 12,9 km/h (3 Bft) 98 %
12.05.2022 20:10 20,4 C 20,4 C 20,7 C 64 % 1015,8 hPa 0,0 l/m 3,2 km/h (1 Bft) W-SW 257 0 min 0,000 mm 40 W/m 13,4 C 20,4 C 14,5 km/h (3 Bft) 97 %
12.05.2022 20:20 20,2 C 20,2 C 20,4 C 65 % 1015,8 hPa 0,0 l/m 2,3 km/h (1 Bft) S-SW 207 0 min 0,000 mm 25 W/m 13,4 C 20,2 C 14,5 km/h (3 Bft) 97 %
12.05.2022 20:30 19,9 C 19,9 C 20,2 C 66 % 1015,8 hPa 0,0 l/m 4,1 km/h (1 Bft) SW 218 0 min 0,000 mm 21 W/m 13,4 C 19,9 C 9,7 km/h (2 Bft) 98 %
12.05.2022 20:40 19,7 C 19,7 C 19,9 C 67 % 1015,8 hPa 0,0 l/m 1,6 km/h (1 Bft) S-SW 211 0 min 0,000 mm 21 W/m 13,4 C 19,7 C 8,0 km/h (2 Bft) 96 %
12.05.2022 20:50 19,5 C 19,5 C 19,7 C 68 % 1015,8 hPa 0,0 l/m 2,5 km/h (1 Bft) S-SW 212 0 min 0,000 mm 9 W/m 13,4 C 19,5 C 9,7 km/h (2 Bft) 97 %
12.05.2022 21:00 19,3 C 19,3 C 19,5 C 68 % 1015,8 hPa 0,0 l/m 0,2 km/h (0 Bft) S-SW 211 0 min 0,025 mm 0 W/m 13,2 C 19,3 C 6,4 km/h (2 Bft) 97 %
12.05.2022 21:10 19,0 C 19,0 C 19,3 C 69 % 1016,0 hPa 0,0 l/m 0,0 km/h (0 Bft) SW 225 0 min 0,000 mm 0 W/m 13,2 C 19,0 C 3,2 km/h (1 Bft) 100 %
12.05.2022 21:20 18,8 C 18,8 C 19,0 C 69 % 1016,1 hPa 0,0 l/m 0,0 km/h (0 Bft) SW 225 0 min 0,000 mm 0 W/m 13,0 C 18,8 C 8,0 km/h (2 Bft) 100 %
12.05.2022 21:30 18,6 C 18,6 C 18,8 C 70 % 1016,2 hPa 0,0 l/m 0,0 km/h (0 Bft) SW 225 0 min 0,000 mm 0 W/m 13,0 C 18,6 C 8,0 km/h (2 Bft) 89 %
12.05.2022 21:40 18,4 C 18,4 C 18,6 C 71 % 1016,2 hPa 0,0 l/m 0,0 km/h (0 Bft) N 0 0 min 0,000 mm 0 W/m 13,0 C 18,4 C 0,0 km/h (0 Bft) 100 %
12.05.2022 21:50 18,2 C 18,2 C 18,4 C 71 % 1016,4 hPa 0,0 l/m 0,0 km/h (0 Bft) SW 225 0 min 0,000 mm 0 W/m 12,9 C 18,2 C 3,2 km/h (1 Bft) 100 %
12.05.2022 22:00 18,0 C 18,0 C 18,2 C 72 % 1016,4 hPa 0,0 l/m 0,0 km/h (0 Bft) S-SW 202 0 min 0,000 mm 0 W/m 12,9 C 18,0 C 6,4 km/h (2 Bft) 100 %
12.05.2022 22:10 17,8 C 17,8 C 18,0 C 73 % 1016,7 hPa 0,0 l/m 0,0 km/h (0 Bft) S-SW 202 0 min 0,000 mm 0 W/m 12,9 C 17,8 C 1,6 km/h (1 Bft) 100 %
12.05.2022 22:20 17,6 C 17,6 C 17,8 C 74 % 1016,6 hPa 0,0 l/m 0,0 km/h (0 Bft) S-SW 202 0 min 0,000 mm 0 W/m 12,9 C 17,6 C 1,6 km/h (1 Bft) 100 %
12.05.2022 22:30 17,4 C 17,4 C 17,6 C 75 % 1016,5 hPa 0,0 l/m 0,0 km/h (0 Bft) S-SW 202 0 min 0,000 mm 0 W/m 12,9 C 17,4 C 6,4 km/h (2 Bft) 100 %
12.05.2022 22:40 17,3 C 17,3 C 17,4 C 76 % 1016,5 hPa 0,0 l/m 0,0 km/h (0 Bft) N 0 0 min 0,000 mm 0 W/m 13,0 C 17,3 C 0,0 km/h (0 Bft) 100 %
12.05.2022 22:50 17,2 C 17,2 C 17,3 C 77 % 1016,7 hPa 0,0 l/m 0,0 km/h (0 Bft) S-SW 202 0 min 0,000 mm 0 W/m 13,1 C 17,2 C 4,8 km/h (1 Bft) 100 %
12.05.2022 23:00 17,1 C 17,1 C 17,2 C 77 % 1016,9 hPa 0,0 l/m 0,0 km/h (0 Bft) S-SW 202 0 min 0,025 mm 0 W/m 13,0 C 17,1 C 4,8 km/h (1 Bft) 100 %
12.05.2022 23:10 17,1 C 17,1 C 17,1 C 78 % 1017,0 hPa 0,0 l/m 0,0 km/h (0 Bft) N 0 0 min 0,000 mm 0 W/m 13,2 C 17,1 C 0,0 km/h (0 Bft) 100 %
12.05.2022 23:20 16,9 C 16,9 C 17,1 C 79 % 1016,9 hPa 0,0 l/m 0,0 km/h (0 Bft) S-SW 202 0 min 0,000 mm 0 W/m 13,2 C 16,9 C 1,6 km/h (1 Bft) 100 %
12.05.2022 23:30 16,8 C 16,8 C 16,9 C 80 % 1017,0 hPa 0,0 l/m 0,0 km/h (0 Bft) N 0 0 min 0,000 mm 0 W/m 13,3 C 16,8 C 0,0 km/h (0 Bft) 100 %
12.05.2022 23:40 16,8 C 16,8 C 16,8 C 81 % 1017,1 hPa 0,0 l/m 0,0 km/h (0 Bft) N 0 0 min 0,000 mm 0 W/m 13,5 C 16,8 C 0,0 km/h (0 Bft) 99 %
12.05.2022 23:50 16,8 C 16,8 C 16,8 C 81 % 1017,2 hPa 0,0 l/m 0,0 km/h (0 Bft) SW 225 0 min 0,000 mm 0 W/m 13,5 C 16,8 C 1,6 km/h (1 Bft) 100 %
_ Min-Zeit 06:00 06:00 06:00 15:10 00:40 - 00:00 - - - - - 01:00 06:20 02:10 21:30
Minimum _ 16,5 C 16,5 C 16,6 C 54 % 1011,1 hPa - 0,0 km/h (0 Bft) - - - - - 10,8 C 15,8 C 0,0 km/h (0 Bft) 89 %
_ Max-Zeit 15:10 15:10 15:10 23:40 11:30 00:00 10:40 - - 13:20 14:00 11:30 17:10 15:30 01:20 00:00
Maximum _ 23,2 C 22,9 C 23,2 C 81 % 1017,9 hPa 0,0 l/m 12,9 km/h
W-SW (3 Bft)
- - 30 min 0,533 mm 1144 W/m 13,9 C 22,5 C 33,8 km/h
NW (5 Bft)
100 %
Durchschnitt _ 19,5 C 19,5 C 19,6 C 66 % 1015,4 hPa #0,0 l/m 4,6 km/h (1 Bft) W-SW - #10:50 h #3,911 mm 346 W/m 12,8 C 19,3 C 16,1 km/h (3 Bft) 99 %
PRIVATE WETTERSTATION BILLIGHEIM-ALLFELD - www.neckar-odenwald-wetter.de - Holger Sonntag